createdAt,value
2023-03-12T00:03:17.960Z,66.0
2023-03-12T00:15:24.210Z,66.0
2023-03-12T00:29:18.692Z,65.0
2023-03-12T00:45:07.190Z,63.0
2023-03-12T00:50:31.359Z,63.0
2023-03-12T01:04:31.489Z,62.0
2023-03-12T01:20:29.386Z,61.0
2023-03-12T01:28:03.861Z,61.0
2023-03-12T01:42:04.212Z,61.0
2023-03-12T01:46:53.084Z,61.0
2023-03-12T02:00:53.133Z,60.0
2023-03-12T02:14:53.225Z,60.0
2023-03-12T02:28:53.236Z,60.0
2023-03-12T02:35:33.565Z,60.0
2023-03-12T02:43:38.057Z,60.0
2023-03-12T03:02:34.189Z,61.0
2023-03-12T03:19:45.070Z,63.0
2023-03-12T03:28:46.731Z,63.0
2023-03-12T03:36:17.075Z,63.0
2023-03-12T03:47:17.940Z,63.0
2023-03-12T04:03:21.977Z,64.0
2023-03-12T04:12:23.005Z,65.0
2023-03-12T04:18:57.936Z,65.0
2023-03-12T04:32:57.903Z,65.0
2023-03-12T04:48:07.515Z,65.0
2023-03-12T04:56:58.001Z,65.0
2023-03-12T05:10:20.871Z,66.0
2023-03-12T05:24:20.867Z,68.0
2023-03-12T05:39:21.200Z,68.0
2023-03-12T05:54:20.896Z,65.0
2023-03-12T06:11:07.895Z,62.0
2023-03-12T06:23:46.162Z,62.0
2023-03-12T06:36:35.576Z,60.0
2023-03-12T06:51:36.217Z,58.0
2023-03-12T07:06:36.308Z,57.0
2023-03-12T07:20:28.483Z,54.0
2023-03-12T07:35:30.462Z,51.0
2023-03-12T07:48:28.357Z,50.0
2023-03-12T08:01:00.402Z,48.0
2023-03-12T08:14:14.172Z,47.0
2023-03-12T08:20:37.597Z,47.0
2023-03-12T08:31:57.637Z,44.0
2023-03-12T08:45:24.330Z,45.0
2023-03-12T08:52:47.532Z,42.0
2023-03-12T09:05:13.303Z,41.0
2023-03-12T09:20:17.391Z,40.0
2023-03-12T09:30:32.572Z,39.0
2023-03-12T09:45:32.445Z,40.0
2023-03-12T09:57:00.208Z,40.0
2023-03-12T10:04:03.639Z,41.0
2023-03-12T10:16:02.242Z,42.0
2023-03-12T10:24:33.487Z,41.0
2023-03-12T10:29:36.117Z,40.0
2023-03-12T10:34:24.477Z,42.0
2023-03-12T10:49:24.477Z,40.0
2023-03-12T10:52:52.152Z,41.0
2023-03-12T11:09:25.281Z,42.0
2023-03-12T11:14:41.767Z,41.0
2023-03-12T11:21:58.637Z,43.0
2023-03-12T11:26:25.460Z,41.0
2023-03-12T11:33:02.118Z,43.0
2023-03-12T11:41:56.860Z,42.0
2023-03-12T11:45:17.149Z,41.0
2023-03-12T11:56:17.010Z,40.0
2023-03-12T12:02:07.439Z,40.0
2023-03-12T12:19:38.504Z,39.0
2023-03-12T12:26:32.604Z,40.0
2023-03-12T12:36:39.666Z,39.0
2023-03-12T12:42:55.317Z,39.0
2023-03-12T12:53:54.414Z,39.0
2023-03-12T13:07:20.889Z,38.0
2023-03-12T13:22:20.846Z,39.0
2023-03-12T13:27:07.572Z,38.0
2023-03-12T13:49:53.490Z,37.0
2023-03-12T13:55:58.518Z,38.0
2023-03-12T14:06:17.494Z,38.0
2023-03-12T14:16:08.636Z,37.0
2023-03-12T14:31:59.432Z,37.0
2023-03-12T14:41:44.308Z,37.0
2023-03-12T14:50:49.638Z,38.0
2023-03-12T15:02:53.278Z,38.0
2023-03-12T15:13:02.627Z,38.0
2023-03-12T15:24:42.881Z,36.0
2023-03-12T15:35:58.048Z,37.0
2023-03-12T15:46:54.518Z,39.0
2023-03-12T15:59:44.136Z,40.0
2023-03-12T16:15:45.291Z,41.0
2023-03-12T16:27:45.966Z,43.0
2023-03-12T16:39:06.611Z,46.0
2023-03-12T16:51:11.717Z,49.0
2023-03-12T17:03:50.625Z,55.0
2023-03-12T17:09:07.682Z,55.0
2023-03-12T17:13:45.263Z,56.0
2023-03-12T17:28:38.184Z,58.0
2023-03-12T17:41:48.166Z,62.0
2023-03-12T17:52:41.884Z,64.0
2023-03-12T18:12:31.170Z,68.0
2023-03-12T18:19:19.544Z,69.0
2023-03-12T18:23:47.039Z,70.0
2023-03-12T18:38:19.605Z,71.0
2023-03-12T18:52:19.580Z,71.0
2023-03-12T19:05:12.813Z,72.0
2023-03-12T19:17:34.043Z,75.0
2023-03-12T19:28:46.141Z,77.0
2023-03-12T19:52:07.533Z,77.0
2023-03-12T20:02:15.635Z,78.0
2023-03-12T20:17:13.723Z,79.0
2023-03-12T20:28:27.801Z,80.0
2023-03-12T20:32:54.833Z,78.0
2023-03-12T20:47:09.367Z,74.0
2023-03-12T21:01:09.256Z,73.0
2023-03-12T21:16:08.572Z,75.0
2023-03-12T21:26:05.114Z,78.0
2023-03-12T21:31:52.991Z,77.0
2023-03-12T21:39:19.605Z,77.0
2023-03-12T21:57:41.361Z,79.0
2023-03-12T22:11:41.395Z,81.0
2023-03-12T22:29:46.150Z,83.0
2023-03-12T22:37:01.725Z,82.0
2023-03-12T22:51:01.910Z,83.0
2023-03-12T23:00:54.109Z,84.0
2023-03-12T23:05:17.542Z,84.0
2023-03-12T23:21:01.883Z,84.0
2023-03-12T23:36:16.459Z,86.0
2023-03-12T23:43:17.948Z,87.0
2023-03-12T23:53:26.992Z,87.0
